Information Last Ob Photographs Meteogram Network Table Neighbors Monthly Summaries Observation History Wind Roses Custom Wind Roses Data Calendar Satellite Cloud Product Download

Most Recent Observation

This application displays the last observation received by the IEM from this site. The time stamp is in America/Chicago timezone.

Observation Local Time17 Jan 2022, 9:53 PM
Observation UTC Time2022-01-18T03:53:00Z
Air Temp [F]23
Maximum Air Temperature [F]31
Minimum Air Temperature [F]17
Dew Point [F]19
Wind DirectionSE (140 degrees)
Wind Speed [knots]4
Altimeter [inches]29.89
Raw Observation/ProductKAMW 180353Z AUTO 14004KT 10SM FEW090 M05/M07 A2989 RMK AO2 SLP132 T10501072

This data was provided by a JSON(P) webservice. You can find more JSON services.